createdAt,value
2023-07-03T00:00:24.444Z,18.03
2023-07-03T00:03:14.830Z,17.83
2023-07-03T00:05:44.305Z,17.82
2023-07-03T00:08:13.750Z,17.80
2023-07-03T00:10:42.255Z,17.90
2023-07-03T00:13:11.112Z,17.80
2023-07-03T00:15:39.605Z,17.68
2023-07-03T00:18:08.011Z,17.68
2023-07-03T00:20:36.279Z,17.67
2023-07-03T00:23:04.318Z,17.85
2023-07-03T00:25:33.965Z,17.85
2023-07-03T00:28:02.000Z,17.87
2023-07-03T00:30:30.302Z,17.78
2023-07-03T00:32:58.372Z,17.97
2023-07-03T00:35:26.757Z,17.92
2023-07-03T00:37:54.775Z,17.77
2023-07-03T00:40:23.069Z,17.65
2023-07-03T00:42:53.894Z,17.67
2023-07-03T00:45:22.624Z,17.66
2023-07-03T00:47:51.160Z,17.59
2023-07-03T00:50:20.137Z,17.67
2023-07-03T00:52:52.936Z,17.64
2023-07-03T00:55:21.698Z,17.65
2023-07-03T00:57:49.807Z,17.68
2023-07-03T01:00:22.054Z,17.67
2023-07-03T01:02:59.244Z,17.68
2023-07-03T01:05:29.997Z,17.65
2023-07-03T01:07:58.337Z,17.81
2023-07-03T01:10:27.233Z,17.78
2023-07-03T01:12:59.169Z,17.73
2023-07-03T01:15:30.820Z,17.68
2023-07-03T01:18:00.777Z,17.68
2023-07-03T01:20:33.238Z,17.71
2023-07-03T01:23:05.593Z,17.73
2023-07-03T01:25:37.448Z,17.72
2023-07-03T01:28:07.525Z,17.74
2023-07-03T01:30:36.298Z,17.82
2023-07-03T01:33:05.515Z,17.79
2023-07-03T01:35:34.168Z,17.87
2023-07-03T01:38:03.772Z,17.84
2023-07-03T01:40:32.095Z,17.91
2023-07-03T01:43:01.561Z,18.08
2023-07-03T01:45:30.000Z,18.17
2023-07-03T01:47:58.195Z,18.18
2023-07-03T01:50:29.527Z,18.17
2023-07-03T01:53:01.651Z,18.34
2023-07-03T01:55:37.002Z,18.36
2023-07-03T01:58:09.139Z,18.22
2023-07-03T02:00:41.828Z,18.39
2023-07-03T02:03:19.380Z,18.28
2023-07-03T02:05:49.652Z,18.24
2023-07-03T02:08:19.569Z,18.18
2023-07-03T02:10:48.432Z,18.23
2023-07-03T02:13:18.173Z,18.08
2023-07-03T02:15:46.531Z,18.18
2023-07-03T02:18:18.879Z,18.19
2023-07-03T02:20:50.301Z,18.27
2023-07-03T02:23:18.355Z,18.25
2023-07-03T02:25:48.281Z,18.20
2023-07-03T02:28:17.690Z,18.25
2023-07-03T02:30:46.244Z,18.22
2023-07-03T02:33:14.278Z,18.21
2023-07-03T02:35:42.791Z,18.22
2023-07-03T02:38:12.363Z,18.37
2023-07-03T02:40:42.970Z,18.33
2023-07-03T02:43:11.106Z,18.37
2023-07-03T02:45:43.856Z,18.25
2023-07-03T02:48:14.799Z,18.26
2023-07-03T02:50:47.120Z,18.28
2023-07-03T02:53:15.138Z,18.22
2023-07-03T02:55:44.232Z,18.32
2023-07-03T02:58:12.990Z,18.37
2023-07-03T03:00:42.799Z,18.39
2023-07-03T03:03:11.251Z,18.64
2023-07-03T03:05:39.680Z,18.53
2023-07-03T03:08:08.909Z,18.39
2023-07-03T03:10:37.301Z,18.42
2023-07-03T03:13:05.705Z,18.35
2023-07-03T03:15:36.538Z,18.36
2023-07-03T03:18:06.355Z,18.42
2023-07-03T03:20:34.808Z,18.32
2023-07-03T03:23:02.843Z,18.38
2023-07-03T03:25:31.350Z,18.39
2023-07-03T03:27:59.963Z,18.28
2023-07-03T03:30:28.263Z,18.23
2023-07-03T03:32:56.452Z,18.16
2023-07-03T03:35:26.202Z,18.19
2023-07-03T03:37:54.361Z,18.33
2023-07-03T03:40:22.707Z,18.52
2023-07-03T03:42:52.806Z,18.80
2023-07-03T03:45:21.351Z,18.53
2023-07-03T03:47:50.006Z,18.68
2023-07-03T03:50:19.371Z,18.48
2023-07-03T03:52:49.625Z,18.51
2023-07-03T03:55:18.159Z,18.41
2023-07-03T03:57:46.214Z,18.29
2023-07-03T04:00:18.357Z,18.45
2023-07-03T04:02:47.990Z,18.44
2023-07-03T04:05:16.632Z,18.25
2023-07-03T04:07:44.927Z,18.44
2023-07-03T04:10:14.696Z,18.37
2023-07-03T04:12:42.763Z,18.62
2023-07-03T04:15:11.346Z,18.49
2023-07-03T04:17:39.532Z,18.50
2023-07-03T04:20:11.209Z,18.31
2023-07-03T04:22:39.294Z,18.10
2023-07-03T04:25:08.524Z,18.22
2023-07-03T04:27:38.359Z,18.51
2023-07-03T04:30:08.426Z,18.34
2023-07-03T04:32:38.329Z,18.34
2023-07-03T04:35:07.814Z,18.37
2023-07-03T04:37:35.982Z,18.44
2023-07-03T04:40:04.683Z,18.18
2023-07-03T04:42:34.019Z,18.39
2023-07-03T04:45:03.533Z,18.52
2023-07-03T04:47:32.206Z,18.43
2023-07-03T04:50:00.257Z,18.42
2023-07-03T04:52:29.133Z,18.37
2023-07-03T04:54:57.341Z,18.30
2023-07-03T04:57:27.518Z,18.14
2023-07-03T04:59:56.087Z,18.14
2023-07-03T05:02:25.794Z,18.14
2023-07-03T05:04:53.893Z,18.13
2023-07-03T05:07:24.294Z,18.35
2023-07-03T05:09:52.362Z,18.54
2023-07-03T05:12:20.658Z,18.48
2023-07-03T05:14:48.698Z,18.50
2023-07-03T05:17:17.224Z,18.68
2023-07-03T05:19:46.795Z,18.50
2023-07-03T05:22:15.061Z,18.56
2023-07-03T05:24:43.069Z,18.46
2023-07-03T05:27:11.453Z,18.41
2023-07-03T05:29:39.459Z,18.32
2023-07-03T05:32:08.655Z,18.56
2023-07-03T05:34:39.597Z,18.50
2023-07-03T05:37:09.497Z,18.43
2023-07-03T05:39:37.568Z,18.61
2023-07-03T05:42:06.547Z,18.65
2023-07-03T05:44:34.535Z,18.63
2023-07-03T05:47:04.191Z,18.69
2023-07-03T05:49:33.455Z,18.66
2023-07-03T05:52:01.693Z,18.86
2023-07-03T05:54:31.143Z,18.79
2023-07-03T05:56:59.801Z,18.75
2023-07-03T05:59:28.250Z,18.65
2023-07-03T06:01:57.344Z,18.50
2023-07-03T06:04:25.963Z,18.65
2023-07-03T06:06:56.774Z,18.50
2023-07-03T06:09:24.978Z,18.62
2023-07-03T06:11:54.800Z,18.64
2023-07-03T06:14:22.869Z,18.58
2023-07-03T06:16:52.074Z,18.63
2023-07-03T06:19:21.679Z,18.88
2023-07-03T06:21:50.296Z,18.65
2023-07-03T06:24:18.305Z,18.73
2023-07-03T06:26:46.931Z,18.54
2023-07-03T06:29:16.293Z,18.72
2023-07-03T06:31:44.618Z,18.90
2023-07-03T06:34:12.616Z,19.00
2023-07-03T06:36:41.236Z,19.06
2023-07-03T06:39:10.725Z,18.91
2023-07-03T06:41:39.204Z,18.79
2023-07-03T06:44:12.389Z,18.80
2023-07-03T06:46:42.274Z,18.92
2023-07-03T06:49:10.608Z,19.28
2023-07-03T06:51:39.107Z,19.03
2023-07-03T06:54:07.252Z,19.03
2023-07-03T06:56:35.586Z,19.28
2023-07-03T06:59:03.754Z,19.13
2023-07-03T07:01:32.093Z,19.06
2023-07-03T07:04:01.648Z,18.96
2023-07-03T07:06:32.153Z,18.85
2023-07-03T07:09:00.856Z,18.85
2023-07-03T07:11:30.354Z,18.74
2023-07-03T07:14:00.236Z,18.84
2023-07-03T07:16:31.803Z,18.96
2023-07-03T07:19:02.354Z,19.20
2023-07-03T07:21:31.984Z,19.28
2023-07-03T07:24:02.601Z,19.02
2023-07-03T07:26:34.813Z,19.08
2023-07-03T07:29:03.075Z,19.28
2023-07-03T07:31:32.390Z,19.49
2023-07-03T07:34:01.963Z,19.43
2023-07-03T07:36:30.300Z,19.53
2023-07-03T07:38:58.310Z,19.57
2023-07-03T07:41:26.935Z,19.22
2023-07-03T07:43:56.006Z,19.10
2023-07-03T07:46:26.422Z,19.35
2023-07-03T07:48:54.792Z,19.46
2023-07-03T07:51:24.907Z,19.46
2023-07-03T07:53:53.433Z,19.54
2023-07-03T07:56:23.231Z,19.83
2023-07-03T07:58:51.488Z,19.62
2023-07-03T08:01:19.875Z,19.67
2023-07-03T08:03:48.182Z,19.78
2023-07-03T08:06:16.846Z,20.12
2023-07-03T08:08:46.778Z,20.03
2023-07-03T08:11:15.201Z,20.03
2023-07-03T08:13:43.551Z,20.08
2023-07-03T08:16:13.252Z,19.83
2023-07-03T08:18:41.331Z,20.07
2023-07-03T08:21:09.623Z,20.16
2023-07-03T08:23:37.897Z,20.05
2023-07-03T08:26:07.469Z,20.02
2023-07-03T08:28:35.583Z,20.26
2023-07-03T08:31:03.878Z,20.14
2023-07-03T08:33:32.198Z,20.12
2023-07-03T08:38:31.798Z,19.93
2023-07-03T08:41:01.479Z,20.21
2023-07-03T08:43:34.640Z,20.45
2023-07-03T08:46:03.888Z,20.35
2023-07-03T08:48:35.764Z,20.43
2023-07-03T08:51:06.219Z,20.06
2023-07-03T08:53:37.154Z,20.09
2023-07-03T08:56:10.553Z,20.03
2023-07-03T08:58:39.975Z,20.25
2023-07-03T09:01:17.208Z,20.04
2023-07-03T09:03:53.023Z,20.02
2023-07-03T09:06:25.188Z,19.83
2023-07-03T09:09:01.469Z,19.78
2023-07-03T09:11:32.989Z,19.85
2023-07-03T09:14:03.930Z,19.77
2023-07-03T09:16:32.750Z,19.75
2023-07-03T09:19:03.042Z,19.92
2023-07-03T09:21:32.839Z,19.99
2023-07-03T09:24:05.590Z,19.97
2023-07-03T09:26:40.124Z,19.89
2023-07-03T09:29:09.629Z,20.09
2023-07-03T09:31:37.955Z,20.21
2023-07-03T09:34:06.121Z,19.94
2023-07-03T09:36:36.604Z,20.26
2023-07-03T09:39:11.625Z,20.16
2023-07-03T09:41:41.422Z,20.17
2023-07-03T09:44:13.311Z,20.27
2023-07-03T09:46:42.424Z,20.46
2023-07-03T09:49:16.661Z,20.70
2023-07-03T09:51:45.133Z,20.48
2023-07-03T09:54:20.766Z,20.63
2023-07-03T09:56:50.546Z,20.72
2023-07-03T09:59:20.796Z,20.32
2023-07-03T10:07:00.587Z,20.21
2023-07-03T10:12:05.400Z,19.95
2023-07-03T10:14:39.569Z,20.06
2023-07-03T10:17:14.360Z,20.14
2023-07-03T10:19:44.156Z,19.93
2023-07-03T10:22:14.388Z,19.75
2023-07-03T10:24:43.205Z,19.97
2023-07-03T10:27:14.504Z,20.08
2023-07-03T10:29:47.317Z,20.05
2023-07-03T10:32:17.078Z,20.07
2023-07-03T10:34:49.879Z,20.25
2023-07-03T10:37:21.005Z,20.65
2023-07-03T10:39:53.461Z,20.81
2023-07-03T10:42:24.020Z,20.86
2023-07-03T10:44:59.242Z,20.77
2023-07-03T10:47:31.370Z,20.64
2023-07-03T10:50:00.517Z,20.57
2023-07-03T10:52:31.222Z,20.47
2023-07-03T10:55:08.438Z,20.88
2023-07-03T10:57:40.726Z,20.77
2023-07-03T11:00:14.170Z,20.89
2023-07-03T11:02:48.406Z,21.12
2023-07-03T11:05:21.268Z,20.94
2023-07-03T11:07:55.976Z,21.26
2023-07-03T11:10:29.211Z,21.29
2023-07-03T11:13:05.681Z,20.94
2023-07-03T11:15:42.537Z,21.17
2023-07-03T11:23:48.343Z,21.30
2023-07-03T11:28:54.369Z,21.26
2023-07-03T11:31:25.753Z,21.38
2023-07-03T11:44:33.607Z,22.03
2023-07-03T11:47:07.194Z,21.98
2023-07-03T11:49:38.607Z,21.75
2023-07-03T11:52:08.280Z,21.95
2023-07-03T11:54:37.752Z,22.06
2023-07-03T11:57:08.039Z,22.14
2023-07-03T11:59:40.894Z,22.35
2023-07-03T12:02:45.976Z,22.53
2023-07-03T12:06:06.421Z,22.39
2023-07-03T12:08:44.005Z,22.30
2023-07-03T12:11:14.047Z,22.26
2023-07-03T12:13:56.174Z,21.99
2023-07-03T12:16:39.036Z,21.84
2023-07-03T12:19:10.734Z,21.72
2023-07-03T12:21:43.167Z,21.91
2023-07-03T12:24:28.192Z,21.99
2023-07-03T12:27:03.131Z,22.04
2023-07-03T12:29:33.361Z,22.11
2023-07-03T12:32:06.691Z,22.62
2023-07-03T12:34:37.643Z,22.91
2023-07-03T12:37:08.159Z,23.19
2023-07-03T12:39:38.303Z,23.15
2023-07-03T12:42:11.931Z,23.26
2023-07-03T12:44:43.141Z,22.81
2023-07-03T12:47:13.827Z,22.98
2023-07-03T12:50:00.294Z,22.61
2023-07-03T12:52:32.301Z,22.62
2023-07-03T12:57:35.858Z,22.46
2023-07-03T13:00:07.229Z,22.49
2023-07-03T13:02:37.382Z,22.52
2023-07-03T13:05:13.032Z,22.55
2023-07-03T13:07:45.143Z,22.76
2023-07-03T13:10:19.487Z,22.65
2023-07-03T13:13:04.511Z,22.74
2023-07-03T13:15:37.396Z,22.53
2023-07-03T13:18:08.244Z,22.72
2023-07-03T13:20:37.228Z,22.61
2023-07-03T13:23:09.940Z,22.67
2023-07-03T13:25:43.210Z,22.94
2023-07-03T13:28:13.434Z,23.05
2023-07-03T13:30:45.498Z,22.94
2023-07-03T13:33:29.743Z,22.96
2023-07-03T13:35:57.927Z,23.10
2023-07-03T13:38:32.457Z,23.17
2023-07-03T13:41:02.310Z,22.89
2023-07-03T13:43:32.978Z,22.99
2023-07-03T13:46:01.892Z,23.31
2023-07-03T13:48:30.502Z,23.36
2023-07-03T13:51:00.748Z,23.17
2023-07-03T13:53:29.035Z,22.86
2023-07-03T13:56:04.591Z,22.78
2023-07-03T13:58:32.877Z,22.56
2023-07-03T14:01:03.305Z,22.66
2023-07-03T14:03:38.780Z,22.60
2023-07-03T14:06:14.904Z,22.73
2023-07-03T14:08:43.213Z,23.08
2023-07-03T14:11:12.640Z,23.06
2023-07-03T14:13:43.166Z,23.21
2023-07-03T14:16:11.249Z,23.60
2023-07-03T14:18:39.900Z,23.79
2023-07-03T14:21:08.067Z,24.19
2023-07-03T14:23:36.332Z,24.24
2023-07-03T14:26:06.593Z,24.05
2023-07-03T14:28:36.364Z,23.77
2023-07-03T14:31:09.615Z,23.93
2023-07-03T14:33:41.339Z,24.06
2023-07-03T14:36:14.010Z,24.13
2023-07-03T14:38:52.917Z,24.24
2023-07-03T14:41:27.205Z,24.40
2023-07-03T14:43:57.259Z,24.42
2023-07-03T14:46:28.508Z,24.54
2023-07-03T14:48:57.879Z,25.13
2023-07-03T14:51:30.009Z,25.41
2023-07-03T14:54:06.150Z,25.25
2023-07-03T14:56:34.294Z,24.86
2023-07-03T14:59:18.235Z,24.85
2023-07-03T15:01:46.461Z,24.69
2023-07-03T15:04:15.007Z,24.43
2023-07-03T15:06:43.315Z,24.45
2023-07-03T15:09:12.461Z,24.07
2023-07-03T15:11:40.524Z,23.76
2023-07-03T15:14:09.571Z,23.74
2023-07-03T15:16:39.086Z,23.32
2023-07-03T15:19:15.196Z,23.24
2023-07-03T15:21:53.548Z,23.14
2023-07-03T15:24:22.292Z,23.24
2023-07-03T15:26:51.521Z,23.18
2023-07-03T15:29:19.880Z,23.11
2023-07-03T15:31:49.462Z,22.97
2023-07-03T15:34:18.696Z,22.90
2023-07-03T15:36:46.755Z,22.87
2023-07-03T15:39:15.043Z,22.95
2023-07-03T15:41:43.112Z,22.81
2023-07-03T15:44:11.426Z,22.81
2023-07-03T15:46:39.849Z,22.91
2023-07-03T15:49:10.053Z,22.88
2023-07-03T15:51:38.136Z,22.95
2023-07-03T15:54:06.554Z,22.90
2023-07-03T15:56:34.623Z,22.96
2023-07-03T15:59:03.444Z,22.94
2023-07-03T16:01:31.566Z,22.87
2023-07-03T16:04:01.311Z,22.97
2023-07-03T16:06:36.149Z,22.70
2023-07-03T16:09:05.018Z,22.68
2023-07-03T16:11:36.212Z,22.80
2023-07-03T16:14:04.755Z,22.88
2023-07-03T16:16:32.798Z,23.03
2023-07-03T16:19:06.988Z,22.83
2023-07-03T16:21:37.426Z,22.90
2023-07-03T16:24:07.992Z,22.96
2023-07-03T16:26:36.269Z,22.84
2023-07-03T16:29:08.006Z,22.94
2023-07-03T16:31:36.352Z,22.89
2023-07-03T16:34:04.796Z,23.04
2023-07-03T16:36:33.659Z,22.86
2023-07-03T16:39:04.879Z,23.03
2023-07-03T16:41:37.108Z,23.03
2023-07-03T16:44:05.626Z,23.16
2023-07-03T16:46:34.167Z,23.32
2023-07-03T16:49:03.579Z,23.24
2023-07-03T16:51:31.792Z,23.32
2023-07-03T16:54:02.268Z,23.30
2023-07-03T16:56:33.540Z,23.38
2023-07-03T16:59:02.405Z,23.63
2023-07-03T17:01:31.729Z,24.16
2023-07-03T17:04:00.169Z,24.27
2023-07-03T17:06:31.512Z,24.80
2023-07-03T17:09:00.403Z,24.87
2023-07-03T17:11:28.647Z,24.62
2023-07-03T17:14:00.332Z,24.40
2023-07-03T17:16:29.185Z,23.83
2023-07-03T17:19:00.127Z,23.91
2023-07-03T17:21:28.338Z,23.89
2023-07-03T17:24:01.581Z,23.49
2023-07-03T17:26:30.306Z,23.48
2023-07-03T17:29:00.037Z,23.46
2023-07-03T17:31:28.223Z,23.28
2023-07-03T17:33:57.136Z,23.25
2023-07-03T17:36:25.887Z,22.92
2023-07-03T17:38:54.335Z,22.88
2023-07-03T17:41:24.358Z,22.63
2023-07-03T17:44:03.354Z,22.43
2023-07-03T17:46:38.025Z,22.46
2023-07-03T17:49:08.426Z,22.45
2023-07-03T17:51:39.087Z,22.45
2023-07-03T17:54:07.778Z,22.31
2023-07-03T17:56:39.058Z,22.32
2023-07-03T17:59:11.703Z,22.10
2023-07-03T18:01:45.105Z,22.17
2023-07-03T18:04:17.744Z,22.19
2023-07-03T18:06:48.329Z,22.11
2023-07-03T18:09:19.106Z,22.14
2023-07-03T18:12:14.339Z,22.06
2023-07-03T18:14:44.609Z,22.20
2023-07-03T18:17:13.175Z,21.96
2023-07-03T18:19:56.805Z,21.97
2023-07-03T18:22:24.873Z,22.00
2023-07-03T18:24:53.444Z,21.95
2023-07-03T18:27:21.635Z,22.03
2023-07-03T18:29:55.776Z,22.05
2023-07-03T18:32:24.978Z,22.15
2023-07-03T18:34:56.451Z,21.87
2023-07-03T18:37:29.469Z,21.91
2023-07-03T18:40:00.864Z,21.68
2023-07-03T18:42:31.366Z,21.58
2023-07-03T18:45:03.881Z,21.52
2023-07-03T18:47:35.114Z,21.24
2023-07-03T18:50:03.491Z,21.26
2023-07-03T18:52:33.670Z,21.07
2023-07-03T18:55:02.004Z,21.18
2023-07-03T18:57:36.301Z,21.43
2023-07-03T19:00:08.583Z,21.21
2023-07-03T19:02:36.660Z,20.89
2023-07-03T19:05:06.626Z,20.86
2023-07-03T19:07:37.866Z,21.03
2023-07-03T19:10:17.764Z,21.00
2023-07-03T19:12:46.745Z,21.12
2023-07-03T19:15:16.545Z,21.28
2023-07-03T19:17:45.162Z,21.18
2023-07-03T19:20:18.791Z,20.82
2023-07-03T19:22:48.101Z,20.65
2023-07-03T19:25:17.920Z,20.62
2023-07-03T19:27:51.873Z,20.51
2023-07-03T19:30:21.660Z,20.37
2023-07-03T19:32:54.170Z,20.48
2023-07-03T19:35:34.043Z,20.46
2023-07-03T19:38:11.935Z,20.43
2023-07-03T19:40:40.300Z,20.11
2023-07-03T19:43:09.259Z,19.95
2023-07-03T19:45:51.081Z,20.06
2023-07-03T19:48:20.760Z,19.98
2023-07-03T19:50:49.140Z,20.08
2023-07-03T19:53:17.945Z,20.13
2023-07-03T19:55:50.698Z,19.88
2023-07-03T19:58:25.802Z,19.76
2023-07-03T20:01:02.762Z,19.66
2023-07-03T20:03:31.235Z,19.61
2023-07-03T20:05:59.690Z,19.60
2023-07-03T20:08:27.901Z,19.63
2023-07-03T20:11:00.472Z,19.55
2023-07-03T20:13:36.447Z,19.62
2023-07-03T20:16:14.086Z,19.58
2023-07-03T20:18:47.614Z,19.61
2023-07-03T20:21:16.172Z,19.58
2023-07-03T20:26:34.668Z,19.54
2023-07-03T20:29:04.358Z,19.31
2023-07-03T20:31:40.064Z,19.22
2023-07-03T20:34:08.303Z,19.21
2023-07-03T20:36:42.886Z,19.16
2023-07-03T20:39:14.172Z,19.14
2023-07-03T20:41:50.625Z,19.02
2023-07-03T20:44:20.237Z,18.96
2023-07-03T20:46:51.285Z,18.88
2023-07-03T20:49:19.780Z,18.83
2023-07-03T20:51:53.768Z,18.84
2023-07-03T20:54:33.946Z,18.93
2023-07-03T20:57:02.836Z,18.85
2023-07-03T20:59:31.044Z,18.80
2023-07-03T21:02:01.356Z,18.75
2023-07-03T21:04:30.113Z,18.75
2023-07-03T21:07:00.720Z,18.87
2023-07-03T21:09:28.983Z,18.78
2023-07-03T21:11:58.953Z,18.76
2023-07-03T21:14:27.233Z,18.78
2023-07-03T21:16:56.119Z,18.80
2023-07-03T21:19:25.583Z,18.92
2023-07-03T21:21:55.575Z,18.75
2023-07-03T21:24:26.793Z,18.80
2023-07-03T21:26:58.918Z,18.76
2023-07-03T21:29:26.953Z,18.69
2023-07-03T21:31:55.747Z,18.75
2023-07-03T21:34:27.529Z,18.69
2023-07-03T21:36:56.192Z,18.64
2023-07-03T21:39:24.291Z,18.66
2023-07-03T21:41:52.853Z,18.64
2023-07-03T21:44:24.806Z,18.60
2023-07-03T21:47:03.670Z,18.57
2023-07-03T21:49:35.837Z,18.56
2023-07-03T21:52:07.243Z,18.59
2023-07-03T21:54:35.909Z,18.52
2023-07-03T21:57:05.194Z,18.56
2023-07-03T21:59:37.855Z,18.60
2023-07-03T22:02:09.327Z,18.53
2023-07-03T22:04:39.194Z,18.55
2023-07-03T22:07:08.111Z,18.60
2023-07-03T22:09:39.732Z,18.61
2023-07-03T22:12:09.986Z,18.65
2023-07-03T22:17:51.800Z,18.80
2023-07-03T22:20:21.493Z,18.73
2023-07-03T22:22:52.872Z,18.76
2023-07-03T22:25:22.301Z,18.84
2023-07-03T22:27:54.133Z,18.79
2023-07-03T22:30:22.437Z,18.85
2023-07-03T22:32:51.018Z,18.79
2023-07-03T22:35:22.788Z,18.65
2023-07-03T22:37:52.556Z,18.53
2023-07-03T22:40:20.897Z,18.49
2023-07-03T22:42:49.328Z,18.44
2023-07-03T22:45:17.565Z,18.54
2023-07-03T22:47:46.164Z,18.47
2023-07-03T22:50:14.319Z,18.54
2023-07-03T22:52:42.834Z,18.55
2023-07-03T22:55:12.321Z,18.61
2023-07-03T22:57:40.696Z,18.64
2023-07-03T23:00:12.004Z,18.50
2023-07-03T23:02:40.862Z,18.50
2023-07-03T23:05:12.659Z,18.39
2023-07-03T23:07:41.360Z,18.40
2023-07-03T23:10:10.307Z,18.25
2023-07-03T23:12:39.994Z,18.21
2023-07-03T23:15:08.817Z,18.22
2023-07-03T23:17:39.450Z,18.22
2023-07-03T23:20:12.520Z,18.17
2023-07-03T23:22:42.501Z,18.24
2023-07-03T23:25:11.107Z,18.13
2023-07-03T23:27:40.769Z,18.10
2023-07-03T23:30:12.838Z,18.04
2023-07-03T23:32:44.143Z,17.99
2023-07-03T23:35:12.853Z,17.98
2023-07-03T23:37:44.805Z,17.95
2023-07-03T23:40:15.465Z,17.84
2023-07-03T23:42:45.259Z,17.72
2023-07-03T23:45:14.448Z,17.77
2023-07-03T23:47:45.088Z,17.80
2023-07-03T23:50:15.016Z,17.84
2023-07-03T23:52:47.135Z,17.93
2023-07-03T23:55:17.372Z,17.92
2023-07-03T23:57:48.248Z,18.00
